createdAt,value
2019-05-28T00:01:36.066Z,99.90
2019-05-28T00:04:04.716Z,99.90
2019-05-28T00:06:33.175Z,99.90
2019-05-28T00:09:01.858Z,99.90
2019-05-28T00:11:30.101Z,99.90
2019-05-28T00:13:59.175Z,99.90
2019-05-28T00:16:28.012Z,99.90
2019-05-28T00:18:56.843Z,99.90
2019-05-28T00:21:26.011Z,99.90
2019-05-28T00:23:54.377Z,99.90
2019-05-28T00:26:22.960Z,99.90
2019-05-28T00:28:51.559Z,99.90
2019-05-28T00:31:20.394Z,99.90
2019-05-28T00:33:49.400Z,99.90
2019-05-28T00:36:18.138Z,99.90
2019-05-28T00:38:47.252Z,99.90
2019-05-28T00:41:16.061Z,99.90
2019-05-28T00:43:44.641Z,99.90
2019-05-28T00:46:13.141Z,99.90
2019-05-28T00:48:41.597Z,99.90
2019-05-28T00:51:10.148Z,99.90
2019-05-28T00:53:38.896Z,99.90
2019-05-28T00:56:07.538Z,99.90
2019-05-28T00:58:36.159Z,99.90
2019-05-28T01:01:05.031Z,99.90
2019-05-28T01:03:33.424Z,99.90
2019-05-28T01:06:01.935Z,99.90
2019-05-28T01:08:30.837Z,99.90
2019-05-28T01:10:59.465Z,99.90
2019-05-28T01:13:28.152Z,99.90
2019-05-28T01:15:56.955Z,99.90
2019-05-28T01:18:25.978Z,99.90
2019-05-28T01:20:54.478Z,99.90
2019-05-28T01:23:23.315Z,99.90
2019-05-28T01:25:51.782Z,99.90
2019-05-28T01:28:20.417Z,99.90
2019-05-28T01:30:56.110Z,99.90
2019-05-28T01:33:19.432Z,99.90
2019-05-28T01:35:48.262Z,99.90
2019-05-28T01:38:16.785Z,99.90
2019-05-28T01:40:45.464Z,99.90
2019-05-28T01:43:15.969Z,99.90
2019-05-28T01:45:44.503Z,99.90
2019-05-28T01:48:13.168Z,99.90
2019-05-28T01:50:41.923Z,99.90
2019-05-28T01:53:11.103Z,99.90
2019-05-28T01:55:39.599Z,99.90
2019-05-28T01:58:08.040Z,99.90
2019-05-28T02:00:36.902Z,99.90
2019-05-28T02:03:05.489Z,99.90
2019-05-28T02:05:34.240Z,99.90
2019-05-28T02:08:02.911Z,99.90
2019-05-28T02:10:31.366Z,99.90
2019-05-28T02:12:59.994Z,99.90
2019-05-28T02:15:28.539Z,99.90
2019-05-28T02:17:57.086Z,99.90
2019-05-28T02:20:25.603Z,99.90
2019-05-28T02:22:54.216Z,99.90
2019-05-28T02:25:22.954Z,99.90
2019-05-28T02:27:51.309Z,99.90
2019-05-28T02:30:19.826Z,99.90
2019-05-28T02:32:48.154Z,99.90
2019-05-28T02:35:16.760Z,99.90
2019-05-28T02:37:45.409Z,99.90
2019-05-28T02:40:13.843Z,99.90
2019-05-28T02:42:42.344Z,99.90
2019-05-28T02:45:11.009Z,99.90
2019-05-28T02:47:39.494Z,99.90
2019-05-28T02:50:09.270Z,99.90
2019-05-28T02:52:37.775Z,99.90
2019-05-28T02:55:09.544Z,99.90
2019-05-28T02:57:38.614Z,99.90
2019-05-28T03:00:18.551Z,99.90
2019-05-28T03:02:46.804Z,99.90
2019-05-28T03:05:15.445Z,99.90
2019-05-28T03:07:55.438Z,99.90
2019-05-28T03:11:00.194Z,99.90
2019-05-28T03:13:07.276Z,99.90
2019-05-28T03:15:38.029Z,99.90
2019-05-28T03:18:08.377Z,99.90
2019-05-28T03:20:36.864Z,99.90
2019-05-28T03:23:11.611Z,99.90
2019-05-28T03:25:40.095Z,99.90
2019-05-28T03:28:09.298Z,99.90
2019-05-28T03:30:37.885Z,99.90
2019-05-28T03:33:06.610Z,99.90
2019-05-28T03:35:35.605Z,99.90
2019-05-28T03:38:20.320Z,99.90
2019-05-28T03:40:49.655Z,99.90
2019-05-28T03:43:18.319Z,99.90
2019-05-28T03:45:54.237Z,99.90
2019-05-28T03:48:25.861Z,99.90
2019-05-28T03:50:54.531Z,99.90
2019-05-28T03:53:23.131Z,99.90
2019-05-28T03:55:51.908Z,99.90
2019-05-28T03:58:21.072Z,99.90
2019-05-28T04:01:03.734Z,99.90
2019-05-28T04:03:31.095Z,98.60
2019-05-28T04:06:00.200Z,99.90
2019-05-28T04:08:28.586Z,98.20
2019-05-28T04:11:05.519Z,99.90
2019-05-28T04:13:37.448Z,99.90
2019-05-28T04:16:06.250Z,99.90
2019-05-28T04:18:36.694Z,99.90
2019-05-28T04:21:06.172Z,99.90
2019-05-28T04:23:41.461Z,99.90
2019-05-28T04:26:09.439Z,98.90
2019-05-28T04:28:52.614Z,98.30
2019-05-28T04:31:21.683Z,99.70
2019-05-28T04:33:50.401Z,99.90
2019-05-28T04:36:19.476Z,99.90
2019-05-28T04:38:48.213Z,99.90
2019-05-28T04:41:16.761Z,99.90
2019-05-28T04:43:45.734Z,99.90
2019-05-28T04:46:19.061Z,99.90
2019-05-28T04:48:47.587Z,99.90
2019-05-28T04:51:16.612Z,99.90
2019-05-28T04:53:45.554Z,99.90
2019-05-28T04:56:14.501Z,99.90
2019-05-28T04:58:44.129Z,99.90
2019-05-28T05:01:13.074Z,99.90
2019-05-28T05:03:41.953Z,99.90
2019-05-28T05:06:16.169Z,99.90
2019-05-28T05:08:46.078Z,99.80
2019-05-28T05:11:16.186Z,99.80
2019-05-28T05:13:49.737Z,99.90
2019-05-28T05:16:22.305Z,99.90
2019-05-28T05:18:51.323Z,99.90
2019-05-28T05:21:20.477Z,99.90
2019-05-28T05:23:52.571Z,99.90
2019-05-28T05:26:23.780Z,99.90
2019-05-28T05:28:54.944Z,99.90
2019-05-28T05:31:24.791Z,99.90
2019-05-28T05:33:53.853Z,99.90
2019-05-28T05:36:22.634Z,99.90
2019-05-28T05:38:54.648Z,99.90
2019-05-28T05:41:25.015Z,99.90
2019-05-28T05:43:55.204Z,99.90
2019-05-28T05:46:32.143Z,99.90
2019-05-28T05:49:13.204Z,99.90
2019-05-28T05:51:41.782Z,97.40
2019-05-28T05:54:12.342Z,97.50
2019-05-28T05:56:41.238Z,97.60
2019-05-28T05:59:12.646Z,98.30
2019-05-28T06:01:40.699Z,98.20
2019-05-28T06:04:10.931Z,99.20
2019-05-28T06:06:40.481Z,98.90
2019-05-28T06:09:09.894Z,98.00
2019-05-28T06:11:38.580Z,97.50
2019-05-28T06:14:07.106Z,94.40
2019-05-28T06:16:36.201Z,97.40
2019-05-28T06:19:04.689Z,95.90
2019-05-28T06:21:33.519Z,98.80
2019-05-28T06:24:02.260Z,98.30
2019-05-28T06:26:31.052Z,99.20
2019-05-28T06:28:59.467Z,98.70
2019-05-28T06:31:28.040Z,98.60
2019-05-28T06:33:57.664Z,98.00
2019-05-28T06:36:29.912Z,98.40
2019-05-28T06:39:02.499Z,98.70
2019-05-28T06:41:31.388Z,99.00
2019-05-28T06:44:01.124Z,98.80
2019-05-28T06:46:33.975Z,96.10
2019-05-28T06:49:03.341Z,95.80
2019-05-28T06:51:34.026Z,92.70
2019-05-28T06:54:02.522Z,94.30
2019-05-28T06:56:36.245Z,94.40
2019-05-28T06:59:06.328Z,94.00
2019-05-28T07:01:36.072Z,94.60
2019-05-28T07:04:13.994Z,92.30
2019-05-28T07:06:39.582Z,91.20
2019-05-28T07:09:08.645Z,90.20
2019-05-28T07:11:40.065Z,91.10
2019-05-28T07:14:08.659Z,91.80
2019-05-28T07:16:52.271Z,92.40
2019-05-28T07:19:23.565Z,95.50
2019-05-28T07:21:40.754Z,94.90
2019-05-28T07:24:10.464Z,94.30
2019-05-28T07:26:39.270Z,93.20
2019-05-28T07:29:07.920Z,94.30
2019-05-28T07:31:37.602Z,92.30
2019-05-28T07:34:07.261Z,92.30
2019-05-28T07:36:37.137Z,90.20
2019-05-28T07:39:06.857Z,89.80
2019-05-28T07:41:37.519Z,88.10
2019-05-28T07:44:06.986Z,89.60
2019-05-28T07:46:39.355Z,92.20
2019-05-28T07:49:09.068Z,90.40
2019-05-28T07:51:40.351Z,91.40
2019-05-28T07:54:11.890Z,91.30
2019-05-28T07:56:42.094Z,92.10
2019-05-28T07:59:15.443Z,88.30
2019-05-28T08:01:47.442Z,89.90
2019-05-28T08:04:20.907Z,91.60
2019-05-28T08:06:54.866Z,91.80
2019-05-28T08:09:20.891Z,91.00
2019-05-28T08:11:52.068Z,91.70
2019-05-28T08:14:20.818Z,91.40
2019-05-28T08:16:53.141Z,92.90
2019-05-28T08:19:21.897Z,93.80
2019-05-28T08:21:55.249Z,92.60
2019-05-28T08:24:24.355Z,93.50
2019-05-28T08:26:57.356Z,96.20
2019-05-28T08:29:29.061Z,97.30
2019-05-28T08:32:00.870Z,99.00
2019-05-28T08:34:31.475Z,99.90
2019-05-28T08:37:06.306Z,99.90
2019-05-28T08:39:36.215Z,99.90
2019-05-28T08:42:05.249Z,99.90
2019-05-28T08:44:34.692Z,99.90
2019-05-28T08:47:08.174Z,99.90
2019-05-28T08:49:40.201Z,99.90
2019-05-28T08:52:11.506Z,99.90
2019-05-28T08:54:41.776Z,99.90
2019-05-28T08:57:16.129Z,99.90
2019-05-28T08:59:45.427Z,99.90
2019-05-28T09:02:27.112Z,99.90
2019-05-28T09:04:46.059Z,99.90
2019-05-28T09:07:19.697Z,99.90
2019-05-28T09:09:50.652Z,99.90
2019-05-28T09:12:20.715Z,99.90
2019-05-28T09:14:56.314Z,99.90
2019-05-28T09:17:21.801Z,99.90
2019-05-28T09:19:51.138Z,99.90
2019-05-28T09:22:25.981Z,99.90
2019-05-28T09:24:52.743Z,99.90
2019-05-28T09:27:23.151Z,98.80
2019-05-28T09:29:55.489Z,99.90
2019-05-28T09:32:24.634Z,99.60
2019-05-28T09:34:53.417Z,99.90
2019-05-28T09:37:22.131Z,99.90
2019-05-28T09:39:51.078Z,99.90
2019-05-28T09:42:19.830Z,99.90
2019-05-28T09:44:50.227Z,99.90
2019-05-28T09:47:19.170Z,99.90
2019-05-28T09:49:47.612Z,99.90
2019-05-28T09:52:16.119Z,99.90
2019-05-28T09:54:44.637Z,99.90
2019-05-28T09:57:13.191Z,99.90
2019-05-28T09:59:44.543Z,99.90
2019-05-28T10:02:13.818Z,99.90
2019-05-28T10:04:49.748Z,99.90
2019-05-28T10:07:16.681Z,99.90
2019-05-28T10:09:52.499Z,99.90
2019-05-28T10:12:27.482Z,99.90
2019-05-28T10:14:57.681Z,99.90
2019-05-28T10:17:28.880Z,99.90
2019-05-28T10:20:03.311Z,99.90
2019-05-28T10:22:35.407Z,99.90
2019-05-28T10:25:10.563Z,99.90
2019-05-28T10:28:00.008Z,99.90
2019-05-28T10:30:25.340Z,99.90
2019-05-28T10:33:09.838Z,99.90
2019-05-28T10:35:44.616Z,99.90
2019-05-28T10:38:20.226Z,99.90
2019-05-28T10:40:51.883Z,99.90
2019-05-28T10:43:36.827Z,99.90
2019-05-28T10:46:10.451Z,99.90
2019-05-28T10:48:42.414Z,99.90
2019-05-28T10:51:17.674Z,99.90
2019-05-28T10:53:51.204Z,99.90
2019-05-28T10:56:26.652Z,99.90
2019-05-28T10:58:59.969Z,99.90
2019-05-28T11:01:37.526Z,99.90
2019-05-28T11:04:11.730Z,99.10
2019-05-28T11:06:51.905Z,99.90
2019-05-28T11:09:20.243Z,99.90
2019-05-28T11:12:11.521Z,99.90
2019-05-28T11:14:49.774Z,99.90
2019-05-28T11:17:21.164Z,99.90
2019-05-28T11:19:50.971Z,99.90
2019-05-28T11:22:22.079Z,99.90
2019-05-28T11:24:52.801Z,99.90
2019-05-28T11:27:24.155Z,99.90
2019-05-28T11:29:54.241Z,99.90
2019-05-28T11:32:24.802Z,99.90
2019-05-28T11:34:58.242Z,99.90
2019-05-28T11:37:32.041Z,99.90
2019-05-28T11:40:03.692Z,99.90
2019-05-28T11:42:41.826Z,99.90
2019-05-28T11:45:13.239Z,99.90
2019-05-28T11:47:44.588Z,98.60
2019-05-28T11:50:15.035Z,98.20
2019-05-28T11:52:46.900Z,97.50
2019-05-28T11:55:17.450Z,96.70
2019-05-28T11:57:53.626Z,96.40
2019-05-28T12:03:15.851Z,96.00
2019-05-28T12:05:50.921Z,97.30
2019-05-28T12:08:26.284Z,97.50
2019-05-28T12:10:58.631Z,97.90
2019-05-28T12:13:31.712Z,98.00
2019-05-28T12:16:02.974Z,97.90
2019-05-28T12:18:33.537Z,97.70
2019-05-28T12:21:05.534Z,96.60
2019-05-28T12:23:40.619Z,96.70
2019-05-28T12:26:11.601Z,95.50
2019-05-28T12:28:41.576Z,93.50
2019-05-28T12:31:10.760Z,93.00
2019-05-28T12:33:40.166Z,93.30
2019-05-28T12:36:13.458Z,93.80
2019-05-28T12:38:41.910Z,93.90
2019-05-28T12:41:10.814Z,91.60
2019-05-28T12:43:40.160Z,92.90
2019-05-28T12:46:08.887Z,90.50
2019-05-28T12:48:38.214Z,92.50
2019-05-28T12:51:09.406Z,93.30
2019-05-28T12:53:50.262Z,93.60
2019-05-28T12:56:15.096Z,94.30
2019-05-28T12:58:46.167Z,93.20
2019-05-28T13:01:14.629Z,92.20
2019-05-28T13:03:44.217Z,95.50
2019-05-28T13:06:12.965Z,95.60
2019-05-28T13:08:43.340Z,96.40
2019-05-28T13:11:19.444Z,96.10
2019-05-28T13:13:48.415Z,94.10
2019-05-28T13:16:21.768Z,94.40
2019-05-28T13:18:50.713Z,93.70
2019-05-28T13:21:19.840Z,92.10
2019-05-28T13:23:53.653Z,89.30
2019-05-28T13:26:22.216Z,91.00
2019-05-28T13:28:55.136Z,86.40
2019-05-28T13:31:26.925Z,89.40
2019-05-28T13:33:55.594Z,90.90
2019-05-28T13:36:24.148Z,91.40
2019-05-28T13:38:53.014Z,90.40
2019-05-28T13:41:28.401Z,91.40
2019-05-28T13:43:57.719Z,91.40
2019-05-28T13:46:26.509Z,93.40
2019-05-28T13:48:56.992Z,91.20
2019-05-28T13:51:27.822Z,88.80
2019-05-28T13:53:56.766Z,89.20
2019-05-28T13:56:25.617Z,89.40
2019-05-28T13:58:54.252Z,90.30
2019-05-28T14:01:26.225Z,90.70
2019-05-28T14:03:58.040Z,90.40
2019-05-28T14:06:26.798Z,92.30
2019-05-28T14:08:55.792Z,90.20
2019-05-28T14:11:24.416Z,85.00
2019-05-28T14:13:53.119Z,86.40
2019-05-28T14:16:21.807Z,85.60
2019-05-28T14:18:50.638Z,84.60
2019-05-28T14:21:19.948Z,85.80
2019-05-28T14:23:49.325Z,89.00
2019-05-28T14:26:18.594Z,92.90
2019-05-28T14:28:48.259Z,95.30
2019-05-28T14:31:23.939Z,94.90
2019-05-28T14:33:55.186Z,95.80
2019-05-28T14:36:29.745Z,96.00
2019-05-28T14:39:03.036Z,96.60
2019-05-28T14:41:28.234Z,93.90
2019-05-28T14:43:56.661Z,92.20
2019-05-28T14:46:25.224Z,92.50
2019-05-28T14:48:53.757Z,90.20
2019-05-28T14:51:22.394Z,91.00
2019-05-28T14:53:54.409Z,91.60
2019-05-28T14:56:25.647Z,89.50
2019-05-28T14:58:54.538Z,89.70
2019-05-28T15:01:22.966Z,89.80
2019-05-28T15:03:51.436Z,87.90
2019-05-28T15:06:19.822Z,87.00
2019-05-28T15:08:48.318Z,79.80
2019-05-28T15:11:18.182Z,78.40
2019-05-28T15:13:46.552Z,77.10
2019-05-28T15:16:16.904Z,79.90
2019-05-28T15:18:45.718Z,80.50
2019-05-28T15:21:18.425Z,75.20
2019-05-28T15:23:49.846Z,72.50
2019-05-28T15:26:18.608Z,77.10
2019-05-28T15:28:48.570Z,75.50
2019-05-28T15:31:18.624Z,76.60
2019-05-28T15:33:47.590Z,78.70
2019-05-28T15:36:17.882Z,80.70
2019-05-28T15:38:46.673Z,83.20
2019-05-28T15:41:16.333Z,85.40
2019-05-28T15:43:46.359Z,89.60
2019-05-28T15:46:16.773Z,87.20
2019-05-28T15:48:47.357Z,90.30
2019-05-28T15:51:17.759Z,89.20
2019-05-28T15:53:47.826Z,88.00
2019-05-28T15:56:18.185Z,89.80
2019-05-28T15:58:47.936Z,87.80
2019-05-28T16:01:17.316Z,90.20
2019-05-28T16:03:46.027Z,90.40
2019-05-28T16:06:14.967Z,87.10
2019-05-28T16:08:43.290Z,86.90
2019-05-28T16:11:11.955Z,89.90
2019-05-28T16:13:40.708Z,90.10
2019-05-28T16:16:09.613Z,89.20
2019-05-28T16:18:38.281Z,89.20
2019-05-28T16:21:06.876Z,91.10
2019-05-28T16:23:35.321Z,89.40
2019-05-28T16:26:04.658Z,88.40
2019-05-28T16:28:33.482Z,88.10
2019-05-28T16:31:12.268Z,87.30
2019-05-28T16:33:32.418Z,87.90
2019-05-28T16:36:00.894Z,86.70
2019-05-28T16:38:29.622Z,87.50
2019-05-28T16:41:00.095Z,87.00
2019-05-28T16:43:28.829Z,86.80
2019-05-28T16:45:57.503Z,89.40
2019-05-28T16:48:26.266Z,89.80
2019-05-28T16:50:54.631Z,90.00
2019-05-28T16:53:23.061Z,90.50
2019-05-28T16:55:51.577Z,91.50
2019-05-28T16:58:20.563Z,92.60
2019-05-28T17:00:50.293Z,92.00
2019-05-28T17:03:18.986Z,92.20
2019-05-28T17:05:48.228Z,92.30
2019-05-28T17:08:16.600Z,92.60
2019-05-28T17:10:45.125Z,92.60
2019-05-28T17:13:14.632Z,93.40
2019-05-28T17:15:43.322Z,93.70
2019-05-28T17:18:12.344Z,94.00
2019-05-28T17:20:41.096Z,91.80
2019-05-28T17:23:09.700Z,92.60
2019-05-28T17:25:38.131Z,94.00
2019-05-28T17:28:07.168Z,94.00
2019-05-28T17:30:35.571Z,93.10
2019-05-28T17:33:04.290Z,92.80
2019-05-28T17:35:33.101Z,93.90
2019-05-28T17:38:01.553Z,93.50
2019-05-28T17:40:30.231Z,94.60
2019-05-28T17:42:59.046Z,95.30
2019-05-28T17:45:27.977Z,92.90
2019-05-28T17:47:56.474Z,94.10
2019-05-28T17:50:25.257Z,95.60
2019-05-28T17:52:53.872Z,94.90
2019-05-28T17:55:22.907Z,95.60
2019-05-28T17:57:53.016Z,93.80
2019-05-28T18:00:23.622Z,95.90
2019-05-28T18:02:54.929Z,96.90
2019-05-28T18:05:23.955Z,97.70
2019-05-28T18:07:55.379Z,97.60
2019-05-28T18:10:24.393Z,96.10
2019-05-28T18:12:54.761Z,97.70
2019-05-28T18:15:23.908Z,98.30
2019-05-28T18:17:52.877Z,99.20
2019-05-28T18:20:21.443Z,99.90
2019-05-28T18:22:50.228Z,99.50
2019-05-28T18:25:20.301Z,99.90
2019-05-28T18:27:49.341Z,99.90
2019-05-28T18:30:18.217Z,99.90
2019-05-28T18:32:47.468Z,99.90
2019-05-28T18:35:16.555Z,99.90
2019-05-28T18:37:45.408Z,99.90
2019-05-28T18:40:16.488Z,99.90
2019-05-28T18:42:45.386Z,99.90
2019-05-28T18:45:25.272Z,99.90
2019-05-28T18:48:12.194Z,99.90
2019-05-28T18:50:41.948Z,99.90
2019-05-28T18:53:10.483Z,99.90
2019-05-28T18:55:38.915Z,99.90
2019-05-28T18:58:09.062Z,99.90
2019-05-28T19:00:37.871Z,99.90
2019-05-28T19:03:06.984Z,99.90
2019-05-28T19:05:35.474Z,99.90
2019-05-28T19:08:09.744Z,99.90
2019-05-28T19:10:38.447Z,99.90
2019-05-28T19:13:07.969Z,99.90
2019-05-28T19:15:36.568Z,99.90
2019-05-28T19:18:05.226Z,99.90
2019-05-28T19:20:33.851Z,99.90
2019-05-28T19:23:02.263Z,99.90
2019-05-28T19:25:32.720Z,99.90
2019-05-28T19:28:01.184Z,99.90
2019-05-28T19:30:35.519Z,99.90
2019-05-28T19:33:06.704Z,99.90
2019-05-28T19:35:35.319Z,99.90
2019-05-28T19:38:08.511Z,99.90
2019-05-28T19:40:40.919Z,99.90
2019-05-28T19:43:16.532Z,99.90
2019-05-28T19:45:46.955Z,99.90
2019-05-28T19:48:15.394Z,99.90
2019-05-28T19:50:45.544Z,99.90
2019-05-28T19:53:14.900Z,99.90
2019-05-28T19:55:50.811Z,99.90
2019-05-28T19:58:29.630Z,99.90
2019-05-28T20:01:06.067Z,99.90
2019-05-28T20:03:41.157Z,99.90
2019-05-28T20:06:10.372Z,99.90
2019-05-28T20:08:40.571Z,99.90
2019-05-28T20:11:09.566Z,99.90
2019-05-28T20:13:38.517Z,99.90
2019-05-28T20:16:07.530Z,99.90
2019-05-28T20:18:38.737Z,99.90
2019-05-28T20:21:08.893Z,99.90
2019-05-28T20:23:38.504Z,99.90
2019-05-28T20:26:07.906Z,99.90
2019-05-28T20:28:39.938Z,99.90
2019-05-28T20:31:10.396Z,99.90
2019-05-28T20:33:43.543Z,99.90
2019-05-28T20:36:14.025Z,99.90
2019-05-28T20:38:42.686Z,99.90
2019-05-28T20:41:17.580Z,99.90
2019-05-28T20:43:47.876Z,99.90
2019-05-28T20:46:20.781Z,99.90
2019-05-28T20:48:49.637Z,99.90
2019-05-28T20:51:22.267Z,99.90
2019-05-28T20:53:51.857Z,99.90
2019-05-28T20:56:20.580Z,99.90
2019-05-28T20:58:49.644Z,99.90
2019-05-28T21:01:18.376Z,99.90
2019-05-28T21:03:47.797Z,99.90
2019-05-28T21:06:17.740Z,99.90
2019-05-28T21:08:46.254Z,99.90
2019-05-28T21:11:16.539Z,99.90
2019-05-28T21:13:46.089Z,99.90
2019-05-28T21:16:15.223Z,99.90
2019-05-28T21:18:44.014Z,99.90
2019-05-28T21:21:12.519Z,99.90
2019-05-28T21:23:41.381Z,99.90
2019-05-28T21:26:09.822Z,99.90
2019-05-28T21:28:39.822Z,99.90
2019-05-28T21:31:11.073Z,99.90
2019-05-28T21:33:40.041Z,99.90
2019-05-28T21:36:08.456Z,99.90
2019-05-28T21:38:37.256Z,99.90
2019-05-28T21:41:07.449Z,99.90
2019-05-28T21:43:38.624Z,99.90
2019-05-28T21:46:09.777Z,99.90
2019-05-28T21:48:49.291Z,99.90
2019-05-28T21:51:28.242Z,99.90
2019-05-28T21:54:01.858Z,99.90
2019-05-28T21:56:38.283Z,99.90
2019-05-28T21:59:20.996Z,99.90
2019-05-28T22:01:58.262Z,99.90
2019-05-28T22:04:29.883Z,99.90
2019-05-28T22:07:05.383Z,99.90
2019-05-28T22:09:37.496Z,99.90
2019-05-28T22:12:06.314Z,99.90
2019-05-28T22:14:35.653Z,99.90
2019-05-28T22:17:05.505Z,99.90
2019-05-28T22:19:34.001Z,99.90
2019-05-28T22:22:04.647Z,99.90
2019-05-28T22:24:33.861Z,99.90
2019-05-28T22:27:02.907Z,99.90
2019-05-28T22:29:31.679Z,99.90
2019-05-28T22:32:00.780Z,99.90
2019-05-28T22:34:29.572Z,99.90
2019-05-28T22:36:58.370Z,99.90
2019-05-28T22:39:29.554Z,99.90
2019-05-28T22:41:59.524Z,99.90
2019-05-28T22:44:28.885Z,99.90
2019-05-28T22:46:58.833Z,99.90
2019-05-28T22:49:28.004Z,99.90
2019-05-28T22:51:57.662Z,99.90
2019-05-28T22:54:26.425Z,99.90
2019-05-28T22:56:55.569Z,99.90
2019-05-28T22:59:24.463Z,99.90
2019-05-28T23:01:53.518Z,99.90
2019-05-28T23:04:23.210Z,99.90
2019-05-28T23:06:52.178Z,99.90
2019-05-28T23:09:21.554Z,99.90
2019-05-28T23:11:49.873Z,99.90
2019-05-28T23:14:18.763Z,99.90
2019-05-28T23:16:47.340Z,99.90
2019-05-28T23:19:17.200Z,99.90
2019-05-28T23:21:45.663Z,99.90
2019-05-28T23:24:14.186Z,99.90
2019-05-28T23:26:44.171Z,99.90
2019-05-28T23:29:12.259Z,99.90
2019-05-28T23:31:40.756Z,99.90
2019-05-28T23:34:10.410Z,99.90
2019-05-28T23:36:40.739Z,99.90
2019-05-28T23:39:09.127Z,99.90
2019-05-28T23:41:40.552Z,99.90
2019-05-28T23:44:09.585Z,99.90
2019-05-28T23:46:38.279Z,99.90
2019-05-28T23:49:08.092Z,99.90
2019-05-28T23:51:37.833Z,99.90
2019-05-28T23:54:07.657Z,99.90
2019-05-28T23:56:36.208Z,99.90
2019-05-28T23:59:05.671Z,99.90
